Time;durP1;ratioP1;P1;durP2;ratioP2;P2;SDS_P1;SDS_P2;PMS_P1;PMS_P2;Temp;Humidity;BMP_temperature;BMP_pressure;BME280_temperature;BME280_humidity;BME280_pressure;Samples;Min_cycle;Max_cycle;Signal;HPM_P1;HPM_P2
2021/09/20 00:00:29;;;;;;;8.13;5.70;;;;;;;;;;4912639;29;20031;-84
2021/09/20 00:03:14;;;;;;;7.10;5.10;;;;;;;;;;4908109;29;20399;-85
2021/09/20 00:05:59;;;;;;;9.00;5.78;;;;;;;;;;4898287;29;20032;-84
2021/09/20 00:08:44;;;;;;;11.27;5.80;;;;;;;;;;4912430;29;20115;-85
2021/09/20 00:11:30;;;;;;;7.63;5.35;;;;;;;;;;4925533;29;20028;-84
2021/09/20 00:14:15;;;;;;;7.90;5.35;;;;;;;;;;4924920;29;20043;-85
2021/09/20 00:17:00;;;;;;;6.68;4.70;;;;;;;;;;4911890;29;20091;-85
2021/09/20 00:19:46;;;;;;;6.25;4.68;;;;;;;;;;4913060;29;20036;-84
2021/09/20 00:22:31;;;;;;;7.75;5.05;;;;;;;;;;4906132;29;20032;-87
2021/09/20 00:25:16;;;;;;;7.05;4.47;;;;;;;;;;4912492;29;20463;-85
2021/09/20 00:28:02;;;;;;;5.07;4.13;;;;;;;;;;4924386;29;20067;-85
2021/09/20 00:30:47;;;;;;;6.55;4.47;;;;;;;;;;4912070;29;20166;-85
2021/09/20 00:33:32;;;;;;;6.93;4.40;;;;;;;;;;4909941;29;20067;-84
2021/09/20 00:36:17;;;;;;;7.32;4.50;;;;;;;;;;4911166;29;20036;-85
2021/09/20 00:39:03;;;;;;;5.30;4.32;;;;;;;;;;4911522;29;20031;-85
2021/09/20 00:41:48;;;;;;;5.97;4.28;;;;;;;;;;4908247;29;20451;-85
2021/09/20 00:44:34;;;;;;;5.68;4.07;;;;;;;;;;4911146;29;20675;-84
2021/09/20 00:47:19;;;;;;;5.88;4.88;;;;;;;;;;4902138;29;20096;-84
2021/09/20 00:50:05;;;;;;;6.43;4.80;;;;;;;;;;4912693;29;20028;-84
2021/09/20 00:52:50;;;;;;;6.38;4.47;;;;;;;;;;4898703;29;20027;-84
2021/09/20 00:55:36;;;;;;;6.90;4.75;;;;;;;;;;4899177;29;20027;-86
2021/09/20 00:58:21;;;;;;;6.10;4.43;;;;;;;;;;4910992;29;20486;-85
2021/09/20 01:01:06;;;;;;;7.65;4.47;;;;;;;;;;4899713;29;20032;-84
2021/09/20 01:03:52;;;;;;;6.07;4.57;;;;;;;;;;4900234;29;20117;-84
2021/09/20 01:06:37;;;;;;;5.25;4.07;;;;;;;;;;4897879;29;20103;-84
2021/09/20 01:09:24;;;;;;;6.90;4.45;;;;;;;;;;4894825;29;20028;-85
2021/09/20 01:12:10;;;;;;;7.10;4.60;;;;;;;;;;4912309;29;20404;-86
2021/09/20 01:14:56;;;;;;;5.28;4.30;;;;;;;;;;4894405;29;20483;-85
2021/09/20 01:17:41;;;;;;;7.30;4.82;;;;;;;;;;4898492;29;20031;-84
2021/09/20 01:20:27;;;;;;;6.88;4.78;;;;;;;;;;4897988;29;20117;-84
2021/09/20 01:23:12;;;;;;;6.35;3.95;;;;;;;;;;4906758;29;20431;-85
2021/09/20 01:25:58;;;;;;;5.20;3.80;;;;;;;;;;4898854;29;20497;-84
2021/09/20 01:28:43;;;;;;;6.57;4.20;;;;;;;;;;4882682;29;20080;-84
2021/09/20 01:31:28;;;;;;;6.70;4.43;;;;;;;;;;4896949;29;20444;-84
2021/09/20 01:34:13;;;;;;;7.60;4.60;;;;;;;;;;4894412;29;20043;-84
2021/09/20 01:36:59;;;;;;;7.25;4.50;;;;;;;;;;4898417;29;20495;-84
2021/09/20 01:39:44;;;;;;;7.80;5.05;;;;;;;;;;4896977;29;20028;-85
2021/09/20 01:42:29;;;;;;;7.10;4.25;;;;;;;;;;4893110;29;20104;-84
2021/09/20 01:45:15;;;;;;;5.70;4.30;;;;;;;;;;4890776;29;20032;-84
2021/09/20 01:48:00;;;;;;;7.95;4.30;;;;;;;;;;4893397;29;20051;-84
2021/09/20 01:50:46;;;;;;;8.23;4.35;;;;;;;;;;4893041;29;20031;-84
2021/09/20 01:53:31;;;;;;;5.47;4.50;;;;;;;;;;4898800;29;20027;-84
2021/09/20 01:56:16;;;;;;;6.38;4.57;;;;;;;;;;4903057;29;20033;-84
2021/09/20 01:59:02;;;;;;;9.55;4.78;;;;;;;;;;4889577;29;20064;-84
2021/09/20 02:01:47;;;;;;;8.15;4.53;;;;;;;;;;4908482;29;20103;-84
2021/09/20 02:04:33;;;;;;;6.97;4.65;;;;;;;;;;4895095;29;20123;-85
2021/09/20 02:07:18;;;;;;;8.00;4.75;;;;;;;;;;4912051;29;20036;-83
2021/09/20 02:10:04;;;;;;;7.03;4.43;;;;;;;;;;4896599;29;20028;-88
2021/09/20 02:12:49;;;;;;;8.88;5.32;;;;;;;;;;4906504;29;20028;-84
2021/09/20 02:15:34;;;;;;;5.57;4.07;;;;;;;;;;4909112;29;20048;-84
2021/09/20 02:18:20;;;;;;;6.18;4.47;;;;;;;;;;4901246;29;20020;-85
2021/09/20 02:21:06;;;;;;;6.70;4.82;;;;;;;;;;4917824;29;20043;-86
2021/09/20 02:23:51;;;;;;;8.02;4.82;;;;;;;;;;4895794;29;20028;-85
2021/09/20 02:26:36;;;;;;;5.88;4.43;;;;;;;;;;4898768;29;20031;-83
2021/09/20 02:29:22;;;;;;;6.80;4.78;;;;;;;;;;4895365;29;20025;-83
2021/09/20 02:32:07;;;;;;;10.60;6.15;;;;;;;;;;4896961;29;20506;-83
2021/09/20 02:34:52;;;;;;;7.63;5.00;;;;;;;;;;4913201;29;20055;-83
2021/09/20 02:37:39;;;;;;;8.80;4.50;;;;;;;;;;4892310;29;20016;-83
2021/09/20 02:40:24;;;;;;;7.32;4.35;;;;;;;;;;4909445;29;20028;-85
2021/09/20 02:43:10;;;;;;;5.97;4.55;;;;;;;;;;4898151;29;20052;-85
2021/09/20 02:45:55;;;;;;;7.47;4.63;;;;;;;;;;4923474;29;20027;-84
2021/09/20 02:48:40;;;;;;;6.00;4.55;;;;;;;;;;4914687;29;20030;-84
2021/09/20 02:51:26;;;;;;;6.40;4.63;;;;;;;;;;4929679;29;20041;-84
2021/09/20 02:54:11;;;;;;;6.45;4.40;;;;;;;;;;4919365;29;20035;-84
2021/09/20 02:56:56;;;;;;;7.95;4.75;;;;;;;;;;4919494;29;20028;-84
2021/09/20 02:59:41;;;;;;;10.10;5.93;;;;;;;;;;4918147;29;20024;-83
2021/09/20 03:02:26;;;;;;;8.68;5.05;;;;;;;;;;4918834;29;20060;-85
2021/09/20 03:05:12;;;;;;;6.47;4.20;;;;;;;;;;4935891;29;20030;-83
2021/09/20 03:07:57;;;;;;;10.90;5.53;;;;;;;;;;4920195;29;20035;-83
2021/09/20 03:10:42;;;;;;;6.95;4.57;;;;;;;;;;4908540;29;20304;-84
2021/09/20 03:13:27;;;;;;;7.63;4.45;;;;;;;;;;4931396;29;20031;-83
2021/09/20 03:16:12;;;;;;;7.28;4.28;;;;;;;;;;4943493;29;20035;-84
2021/09/20 03:18:58;;;;;;;6.28;4.80;;;;;;;;;;4935313;29;20055;-83
2021/09/20 03:21:43;;;;;;;7.90;5.10;;;;;;;;;;4943387;29;20039;-84
2021/09/20 03:24:28;;;;;;;7.32;4.75;;;;;;;;;;4925486;29;20039;-84
2021/09/20 03:27:14;;;;;;;5.80;4.45;;;;;;;;;;4936773;29;20008;-85
2021/09/20 03:29:59;;;;;;;6.50;4.80;;;;;;;;;;4948163;29;20027;-85
2021/09/20 03:32:45;;;;;;;7.95;5.47;;;;;;;;;;4945807;29;20024;-86
2021/09/20 03:35:30;;;;;;;5.97;4.65;;;;;;;;;;4958756;28;20019;-87
2021/09/20 03:38:15;;;;;;;6.93;4.88;;;;;;;;;;4942500;28;20007;-85
2021/09/20 03:41:01;;;;;;;6.35;4.80;;;;;;;;;;4934685;29;20019;-85
2021/09/20 03:43:46;;;;;;;6.95;5.03;;;;;;;;;;4957385;28;20044;-85
2021/09/20 03:46:31;;;;;;;5.68;4.28;;;;;;;;;;4939653;29;20039;-85
2021/09/20 03:49:16;;;;;;;6.10;4.80;;;;;;;;;;4931570;29;20034;-84
2021/09/20 03:52:02;;;;;;;7.70;5.13;;;;;;;;;;4934059;29;20034;-85
2021/09/20 03:54:47;;;;;;;6.68;4.88;;;;;;;;;;4936401;29;20038;-85
2021/09/20 03:57:32;;;;;;;6.50;4.78;;;;;;;;;;4938022;28;20009;-86
2021/09/20 04:00:17;;;;;;;7.20;4.70;;;;;;;;;;4948634;29;20036;-84
2021/09/20 04:03:02;;;;;;;10.35;5.00;;;;;;;;;;4914729;29;20012;-84
2021/09/20 04:05:48;;;;;;;7.22;4.85;;;;;;;;;;4931507;29;20175;-84
2021/09/20 04:08:34;;;;;;;6.40;4.63;;;;;;;;;;4936094;29;20087;-83
2021/09/20 04:11:19;;;;;;;6.32;4.75;;;;;;;;;;4935801;29;20030;-83
2021/09/20 04:14:04;;;;;;;5.78;4.70;;;;;;;;;;4930970;29;20036;-84
2021/09/20 04:16:49;;;;;;;9.15;5.63;;;;;;;;;;4935220;29;20107;-85
2021/09/20 04:19:35;;;;;;;6.95;5.18;;;;;;;;;;4935318;29;20035;-85
2021/09/20 04:22:20;;;;;;;7.25;5.13;;;;;;;;;;4953457;29;20039;-85
2021/09/20 04:25:06;;;;;;;7.65;5.13;;;;;;;;;;4936035;29;20024;-85
2021/09/20 04:27:51;;;;;;;5.80;4.50;;;;;;;;;;4940365;28;20028;-84
2021/09/20 04:30:36;;;;;;;7.38;4.82;;;;;;;;;;4923681;29;20024;-81
2021/09/20 04:33:22;;;;;;;9.20;5.53;;;;;;;;;;4929192;29;20103;-83
2021/09/20 04:36:07;;;;;;;7.95;5.78;;;;;;;;;;4932205;29;20024;-84
2021/09/20 04:38:52;;;;;;;10.27;5.32;;;;;;;;;;4952123;29;20015;-84
2021/09/20 04:41:40;;;;;;;9.02;4.90;;;;;;;;;;4928561;29;20114;-85
2021/09/20 04:44:25;;;;;;;6.95;5.63;;;;;;;;;;4935633;29;20047;-84
2021/09/20 04:47:10;;;;;;;8.82;5.18;;;;;;;;;;4927677;29;20031;-84
2021/09/20 04:49:56;;;;;;;7.00;4.70;;;;;;;;;;4933024;29;20083;-84
2021/09/20 04:52:41;;;;;;;8.27;4.78;;;;;;;;;;4933128;28;20068;-88
2021/09/20 04:55:26;;;;;;;7.00;4.68;;;;;;;;;;4938624;29;20067;-89
2021/09/20 04:58:12;;;;;;;8.48;5.32;;;;;;;;;;4918411;28;20020;-89
2021/09/20 05:00:57;;;;;;;8.52;4.93;;;;;;;;;;4934817;29;20027;-91
2021/09/20 05:03:43;;;;;;;10.38;5.80;;;;;;;;;;4945636;28;20316;-89
2021/09/20 05:06:28;;;;;;;6.38;4.90;;;;;;;;;;4936786;29;20044;-90
2021/09/20 05:09:13;;;;;;;6.80;5.10;;;;;;;;;;4939052;28;20073;-90
2021/09/20 05:11:58;;;;;;;6.75;4.65;;;;;;;;;;4950445;29;20027;-91
2021/09/20 05:14:44;;;;;;;8.85;5.18;;;;;;;;;;4939795;28;20011;-88
2021/09/20 05:17:29;;;;;;;8.02;5.00;;;;;;;;;;4922116;29;20024;-89
2021/09/20 05:20:15;;;;;;;9.80;5.28;;;;;;;;;;4939328;28;20019;-86
2021/09/20 05:23:00;;;;;;;8.48;5.32;;;;;;;;;;4935539;29;20012;-84
2021/09/20 05:25:45;;;;;;;6.38;5.03;;;;;;;;;;4951437;29;20016;-86
2021/09/20 05:28:30;;;;;;;6.65;4.68;;;;;;;;;;4932466;29;20023;-84
2021/09/20 05:31:16;;;;;;;6.18;4.60;;;;;;;;;;4953878;28;20047;-86
2021/09/20 05:34:01;;;;;;;9.85;5.30;;;;;;;;;;4929217;29;20032;-83
2021/09/20 05:36:46;;;;;;;6.50;5.03;;;;;;;;;;4919128;29;20020;-84
2021/09/20 05:39:33;;;;;;;8.23;4.60;;;;;;;;;;4908875;29;20000;-83
2021/09/20 05:42:18;;;;;;;8.15;5.45;;;;;;;;;;4917991;29;20016;-83
2021/09/20 05:45:04;;;;;;;7.78;5.60;;;;;;;;;;4914181;29;20132;-85
2021/09/20 05:47:50;;;;;;;9.68;5.90;;;;;;;;;;4935445;29;20028;-85
2021/09/20 05:50:35;;;;;;;7.15;5.10;;;;;;;;;;4904552;29;20319;-82
2021/09/20 05:53:21;;;;;;;7.60;5.38;;;;;;;;;;4919151;29;20044;-87
2021/09/20 05:56:06;;;;;;;9.55;5.57;;;;;;;;;;4925072;29;20012;-89
2021/09/20 05:58:51;;;;;;;7.72;5.30;;;;;;;;;;4921988;29;20091;-86
2021/09/20 06:01:36;;;;;;;8.98;5.82;;;;;;;;;;4915390;29;20056;-89
2021/09/20 06:04:23;;;;;;;7.10;5.03;;;;;;;;;;4920162;29;20040;-89
2021/09/20 06:07:09;;;;;;;8.77;5.15;;;;;;;;;;4924569;29;20012;-89
2021/09/20 06:09:54;;;;;;;9.98;6.15;;;;;;;;;;4921518;29;20034;-88
2021/09/20 06:12:40;;;;;;;9.20;5.28;;;;;;;;;;4909910;29;20032;-88
2021/09/20 06:15:25;;;;;;;7.88;5.28;;;;;;;;;;4923261;29;20032;-81
2021/09/20 06:18:10;;;;;;;7.20;5.03;;;;;;;;;;4910653;29;20016;-85
2021/09/20 06:20:55;;;;;;;47.97;31.70;;;;;;;;;;4906192;29;20031;-85
2021/09/20 06:23:41;;;;;;;13.52;8.60;;;;;;;;;;4909731;29;20020;-83
2021/09/20 06:26:26;;;;;;;7.22;5.35;;;;;;;;;;4897598;29;20036;-86
2021/09/20 06:29:12;;;;;;;11.10;5.60;;;;;;;;;;4896720;29;20476;-85
2021/09/20 06:31:58;;;;;;;8.90;5.50;;;;;;;;;;4896586;29;20056;-85
2021/09/20 06:34:43;;;;;;;14.57;6.97;;;;;;;;;;4902550;29;20024;-85
2021/09/20 06:37:31;;;;;;;8.13;5.63;;;;;;;;;;4900717;29;20083;-88
2021/09/20 06:40:16;;;;;;;9.23;5.63;;;;;;;;;;4907418;29;20115;-86
2021/09/20 06:43:01;;;;;;;10.82;6.18;;;;;;;;;;4902569;29;20491;-85
2021/09/20 06:45:46;;;;;;;8.00;5.45;;;;;;;;;;4928477;29;20030;-85
2021/09/20 06:48:32;;;;;;;11.00;5.88;;;;;;;;;;4939857;29;20032;-86
2021/09/20 06:51:17;;;;;;;9.35;5.63;;;;;;;;;;4927856;29;20028;-84
2021/09/20 06:54:02;;;;;;;8.18;6.13;;;;;;;;;;4932675;29;20046;-84
2021/09/20 06:56:48;;;;;;;9.98;6.68;;;;;;;;;;4942070;29;20016;-85
2021/09/20 06:59:33;;;;;;;12.55;7.38;;;;;;;;;;4912135;29;20436;-85
2021/09/20 07:02:19;;;;;;;9.27;6.50;;;;;;;;;;4934588;29;20426;-85
2021/09/20 07:05:04;;;;;;;9.95;6.90;;;;;;;;;;4932581;29;20023;-85
2021/09/20 07:07:50;;;;;;;9.35;6.55;;;;;;;;;;4932465;29;20486;-85
2021/09/20 07:10:35;;;;;;;27.20;16.75;;;;;;;;;;4946289;29;20085;-83
2021/09/20 07:13:20;;;;;;;10.40;6.38;;;;;;;;;;4914582;29;20031;-87
2021/09/20 07:16:06;;;;;;;24.38;12.05;;;;;;;;;;4922581;29;20035;-86
2021/09/20 07:18:51;;;;;;;7.82;5.82;;;;;;;;;;4915315;29;20023;-86
2021/09/20 07:21:37;;;;;;;14.25;7.28;;;;;;;;;;4925096;29;20074;-86
2021/09/20 07:24:22;;;;;;;11.55;8.30;;;;;;;;;;4916590;29;20059;-83
2021/09/20 07:27:08;;;;;;;11.20;8.07;;;;;;;;;;4911968;29;20514;-85
2021/09/20 07:29:53;;;;;;;13.23;8.25;;;;;;;;;;4913608;29;20031;-84
2021/09/20 07:32:38;;;;;;;9.93;7.40;;;;;;;;;;4911782;29;20024;-81
2021/09/20 07:35:23;;;;;;;13.35;9.73;;;;;;;;;;4917758;29;20399;-83
2021/09/20 07:38:09;;;;;;;12.93;8.85;;;;;;;;;;4921981;29;20028;-84
2021/09/20 07:40:54;;;;;;;14.98;9.55;;;;;;;;;;4916057;29;20549;-85
2021/09/20 07:43:44;;;;;;;14.73;10.20;;;;;;;;;;4937459;29;20054;-84
2021/09/20 07:46:30;;;;;;;10.88;8.88;;;;;;;;;;4918729;29;20053;-85
2021/09/20 07:49:15;;;;;;;14.20;9.35;;;;;;;;;;4917843;29;20090;-86
2021/09/20 07:52:00;;;;;;;12.63;9.38;;;;;;;;;;4921789;29;20031;-88
2021/09/20 07:54:46;;;;;;;15.32;9.77;;;;;;;;;;4925837;29;20028;-90
2021/09/20 07:57:31;;;;;;;14.77;11.00;;;;;;;;;;4931256;29;20038;-88
2021/09/20 08:00:16;;;;;;;14.98;9.88;;;;;;;;;;4919849;29;20077;-87
2021/09/20 08:03:06;;;;;;;15.52;9.88;;;;;;;;;;4919084;29;20023;-87
2021/09/20 08:05:52;;;;;;;13.35;9.63;;;;;;;;;;4906500;29;20028;-85
2021/09/20 08:08:37;;;;;;;14.80;10.40;;;;;;;;;;4914179;29;20032;-84
2021/09/20 08:11:22;;;;;;;14.93;11.75;;;;;;;;;;4919389;29;20020;-82
2021/09/20 08:14:08;;;;;;;14.32;9.77;;;;;;;;;;4917652;29;20462;-83
2021/09/20 08:16:53;;;;;;;13.95;10.75;;;;;;;;;;4923519;29;20086;-83
2021/09/20 08:19:38;;;;;;;16.08;9.55;;;;;;;;;;4932197;29;20019;-83
2021/09/20 08:22:24;;;;;;;22.40;11.48;;;;;;;;;;4924867;29;20031;-81
2021/09/20 08:25:09;;;;;;;15.63;11.52;;;;;;;;;;4914486;29;20027;-82
2021/09/20 08:27:54;;;;;;;17.70;11.95;;;;;;;;;;4923020;29;20027;-83
2021/09/20 08:30:39;;;;;;;15.50;10.85;;;;;;;;;;4912337;29;20066;-83
2021/09/20 08:33:26;;;;;;;17.80;11.05;;;;;;;;;;4918021;29;20055;-81
2021/09/20 08:36:13;;;;;;;17.10;13.00;;;;;;;;;;4920255;29;20039;-85
2021/09/20 08:38:59;;;;;;;16.85;11.18;;;;;;;;;;4912341;29;20035;-82
2021/09/20 08:41:44;;;;;;;16.27;11.52;;;;;;;;;;4915147;29;20028;-83
2021/09/20 08:44:30;;;;;;;17.08;11.85;;;;;;;;;;4928451;29;20040;-83
2021/09/20 08:47:16;;;;;;;14.27;11.15;;;;;;;;;;4910480;29;20039;-82
2021/09/20 08:50:01;;;;;;;19.75;12.82;;;;;;;;;;4916622;29;20035;-80
2021/09/20 08:52:47;;;;;;;17.50;12.00;;;;;;;;;;4914546;29;20035;-83
2021/09/20 08:55:32;;;;;;;17.73;13.43;;;;;;;;;;4916330;29;20106;-82
2021/09/20 08:58:17;;;;;;;22.45;14.07;;;;;;;;;;4916547;29;20019;-82
2021/09/20 09:01:03;;;;;;;20.10;13.85;;;;;;;;;;4937431;29;20036;-83
2021/09/20 09:03:48;;;;;;;16.13;12.65;;;;;;;;;;4906008;29;20020;-81
2021/09/20 09:06:33;;;;;;;15.63;11.82;;;;;;;;;;4916919;29;20032;-83
2021/09/20 09:09:25;;;;;;;18.65;13.77;;;;;;;;;;4920910;29;20410;-81
2021/09/20 09:12:19;;;;;;;16.88;12.18;;;;;;;;;;4920621;29;20034;-81
2021/09/20 09:15:07;;;;;;;17.20;12.68;;;;;;;;;;4903391;29;20134;-83
2021/09/20 09:17:54;;;;;;;17.92;13.00;;;;;;;;;;4911031;29;20092;-84
2021/09/20 09:20:41;;;;;;;17.65;11.82;;;;;;;;;;4923786;29;20031;-81
2021/09/20 09:23:37;;;;;;;18.67;12.85;;;;;;;;;;4934382;29;20062;-81
2021/09/20 09:26:22;;;;;;;18.50;14.70;;;;;;;;;;4918996;29;20031;-82
2021/09/20 09:29:12;;;;;;;20.40;13.73;;;;;;;;;;4922770;29;20062;-81
2021/09/20 09:31:58;;;;;;;18.38;12.65;;;;;;;;;;4935200;29;20835;-82
2021/09/20 09:34:54;;;;;;;17.17;13.13;;;;;;;;;;4929531;29;20071;-81
2021/09/20 09:37:41;;;;;;;15.85;12.77;;;;;;;;;;4912753;29;20034;-81
2021/09/20 09:40:27;;;;;;;18.85;13.73;;;;;;;;;;4921220;29;20015;-80
2021/09/20 09:43:12;;;;;;;18.90;13.45;;;;;;;;;;4916309;29;20106;-80
2021/09/20 09:45:59;;;;;;;16.58;12.82;;;;;;;;;;4917111;29;20039;-79
2021/09/20 09:48:44;;;;;;;20.25;14.95;;;;;;;;;;4910216;29;20367;-80
2021/09/20 09:51:49;;;;;;;19.05;13.57;;;;;;;;;;4923045;29;20479;-81
2021/09/20 09:54:36;;;;;;;20.05;13.15;;;;;;;;;;4903579;29;20039;-79
2021/09/20 09:57:22;;;;;;;17.58;13.98;;;;;;;;;;4908723;29;20391;-78
2021/09/20 10:00:12;;;;;;;16.80;13.50;;;;;;;;;;4923568;29;20076;-81
2021/09/20 10:03:02;;;;;;;17.80;13.07;;;;;;;;;;4908245;29;20118;-79
2021/09/20 10:05:58;;;;;;;18.38;13.05;;;;;;;;;;4905328;29;20035;-79
2021/09/20 10:08:47;;;;;;;16.10;12.80;;;;;;;;;;4921010;29;20024;-79
2021/09/20 10:11:34;;;;;;;17.05;13.20;;;;;;;;;;4905846;29;20033;-80
2021/09/20 10:14:20;;;;;;;16.95;13.73;;;;;;;;;;4910099;29;20521;-79
2021/09/20 10:17:15;;;;;;;18.90;14.25;;;;;;;;;;4927915;29;20046;-81
2021/09/20 10:20:01;;;;;;;19.70;13.73;;;;;;;;;;4922493;29;20027;-81
2021/09/20 10:22:47;;;;;;;17.92;13.98;;;;;;;;;;4912622;29;20177;-78
2021/09/20 10:25:32;;;;;;;16.33;13.30;;;;;;;;;;4912123;29;20024;-79
2021/09/20 10:28:20;;;;;;;16.38;13.18;;;;;;;;;;4917240;29;20123;-80
2021/09/20 10:31:08;;;;;;;18.00;12.57;;;;;;;;;;4911689;29;20028;-81
2021/09/20 10:34:12;;;;;;;16.50;13.60;;;;;;;;;;4915488;29;20412;-80
2021/09/20 10:36:59;;;;;;;16.77;13.23;;;;;;;;;;4929375;29;20039;-81
2021/09/20 10:39:46;;;;;;;16.75;13.20;;;;;;;;;;4916108;29;20031;-80
2021/09/20 10:42:34;;;;;;;18.52;14.77;;;;;;;;;;4914660;29;20170;-80
2021/09/20 10:45:33;;;;;;;18.25;15.00;;;;;;;;;;4917681;29;20051;-81
2021/09/20 10:48:20;;;;;;;23.00;13.75;;;;;;;;;;4923272;29;20027;-81
2021/09/20 10:51:11;;;;;;;18.17;14.30;;;;;;;;;;4915481;29;20083;-80
2021/09/20 10:54:15;;;;;;;15.68;13.25;;;;;;;;;;4920350;29;20119;-81
2021/09/20 10:57:10;;;;;;;19.25;15.07;;;;;;;;;;4915671;29;20062;-81
2021/09/20 11:00:14;;;;;;;19.67;13.90;;;;;;;;;;4913250;29;20042;-80
2021/09/20 11:03:19;;;;;;;15.55;12.13;;;;;;;;;;4919063;29;20035;-79
2021/09/20 11:06:23;;;;;;;16.95;13.98;;;;;;;;;;4928953;29;20110;-80
2021/09/20 11:09:09;;;;;;;15.25;12.52;;;;;;;;;;4915317;29;20027;-80
2021/09/20 11:12:08;;;;;;;17.92;13.52;;;;;;;;;;4917526;29;20390;-81
2021/09/20 11:15:01;;;;;;;16.73;12.90;;;;;;;;;;4889848;29;20035;-79
2021/09/20 11:17:50;;;;;;;16.98;13.13;;;;;;;;;;4916039;29;21703;-81
2021/09/20 11:20:40;;;;;;;21.40;15.20;;;;;;;;;;4920055;29;20129;-81
2021/09/20 11:23:33;;;;;;;17.70;13.13;;;;;;;;;;4926870;29;20035;-80
2021/09/20 11:26:19;;;;;;;17.75;13.00;;;;;;;;;;4922594;29;20034;-81
2021/09/20 11:29:07;;;;;;;16.40;13.38;;;;;;;;;;4918428;29;20080;-82
2021/09/20 11:31:53;;;;;;;15.60;13.60;;;;;;;;;;4904311;29;20104;-80
2021/09/20 11:34:47;;;;;;;18.20;12.23;;;;;;;;;;4928199;29;20058;-80
2021/09/20 11:37:33;;;;;;;15.85;13.40;;;;;;;;;;4916534;29;20035;-80
2021/09/20 11:40:21;;;;;;;19.00;13.77;;;;;;;;;;4915130;29;20568;-81
2021/09/20 11:43:11;;;;;;;15.00;12.50;;;;;;;;;;4916101;29;20052;-81
2021/09/20 11:46:00;;;;;;;17.38;14.20;;;;;;;;;;4925271;29;20205;-81
2021/09/20 11:48:46;;;;;;;16.58;13.48;;;;;;;;;;4901212;29;20032;-81
2021/09/20 11:51:31;;;;;;;18.70;13.27;;;;;;;;;;4910322;29;20462;-80
2021/09/20 11:54:34;;;;;;;16.67;13.80;;;;;;;;;;4921440;29;20040;-82
2021/09/20 11:57:21;;;;;;;16.70;13.38;;;;;;;;;;4919488;29;20095;-83
2021/09/20 12:00:07;;;;;;;25.30;13.82;;;;;;;;;;4906692;29;20111;-83
2021/09/20 12:02:54;;;;;;;16.65;12.77;;;;;;;;;;4917656;29;20439;-83
2021/09/20 12:05:45;;;;;;;17.13;13.65;;;;;;;;;;4907851;29;20027;-83
2021/09/20 12:08:30;;;;;;;17.08;11.85;;;;;;;;;;4916162;29;20027;-83
2021/09/20 12:11:20;;;;;;;18.35;12.23;;;;;;;;;;4930414;29;20028;-82
2021/09/20 12:14:10;;;;;;;16.58;13.13;;;;;;;;;;4916537;29;20023;-81
2021/09/20 12:16:58;;;;;;;17.27;12.32;;;;;;;;;;4908127;29;20368;-81
2021/09/20 12:19:51;;;;;;;22.80;12.98;;;;;;;;;;4913171;29;20166;-81
2021/09/20 12:22:37;;;;;;;14.88;10.95;;;;;;;;;;4909446;29;20031;-84
2021/09/20 12:25:23;;;;;;;14.02;10.88;;;;;;;;;;4917168;29;20033;-85
2021/09/20 12:28:16;;;;;;;14.45;12.38;;;;;;;;;;4927369;29;20020;-86
2021/09/20 12:31:03;;;;;;;13.90;11.45;;;;;;;;;;4924260;29;20520;-86
2021/09/20 12:34:11;;;;;;;12.85;9.85;;;;;;;;;;4914264;29;20028;-86
2021/09/20 12:36:57;;;;;;;13.00;10.30;;;;;;;;;;4901297;29;20485;-86
2021/09/20 12:39:46;;;;;;;16.67;11.30;;;;;;;;;;4927036;29;20458;-87
2021/09/20 12:42:32;;;;;;;14.65;9.93;;;;;;;;;;4904202;29;20712;-86
2021/09/20 12:45:19;;;;;;;14.43;11.82;;;;;;;;;;4930467;29;20131;-86
2021/09/20 12:48:05;;;;;;;12.75;10.40;;;;;;;;;;4898939;29;20028;-86
2021/09/20 12:50:50;;;;;;;13.73;10.07;;;;;;;;;;4918303;29;20475;-89
2021/09/20 12:53:46;;;;;;;14.10;10.20;;;;;;;;;;4929542;29;20023;-85
2021/09/20 12:56:32;;;;;;;13.73;9.85;;;;;;;;;;4932062;29;20066;-86
2021/09/20 12:59:22;;;;;;;12.55;9.45;;;;;;;;;;4914764;29;20422;-86
2021/09/20 13:02:07;;;;;;;;;;;;;;;;;;4920120;29;20042;-87
2021/09/20 13:04:55;;;;;;;12.55;9.43;;;;;;;;;;4934887;29;20330;-88
2021/09/20 13:07:41;;;;;;;15.70;10.50;;;;;;;;;;4902177;29;20032;-86
2021/09/20 13:10:30;;;;;;;12.57;9.73;;;;;;;;;;4920109;29;20066;-88
2021/09/20 13:13:33;;;;;;;16.05;9.27;;;;;;;;;;4926127;29;20039;-86
2021/09/20 13:16:36;;;;;;;13.88;9.57;;;;;;;;;;4923463;29;20054;-86
2021/09/20 13:19:22;;;;;;;11.60;9.10;;;;;;;;;;4917751;29;20028;-87
2021/09/20 13:22:08;;;;;;;13.75;10.20;;;;;;;;;;4928519;29;20003;-86
2021/09/20 13:24:54;;;;;;;13.77;9.65;;;;;;;;;;4913794;29;20089;-88
2021/09/20 13:27:39;;;;;;;12.40;10.43;;;;;;;;;;4927194;29;20039;-89
2021/09/20 13:30:24;;;;;;;11.60;9.40;;;;;;;;;;4919258;29;20091;-88
2021/09/20 13:33:11;;;;;;;12.60;9.35;;;;;;;;;;4904880;29;20390;-87
2021/09/20 13:36:00;;;;;;;13.18;10.20;;;;;;;;;;4928320;29;20039;-87
2021/09/20 13:38:46;;;;;;;12.27;9.55;;;;;;;;;;4931180;29;20110;-86
2021/09/20 13:41:31;;;;;;;12.50;9.75;;;;;;;;;;4930733;29;20092;-87
2021/09/20 13:44:16;;;;;;;14.63;9.60;;;;;;;;;;4913147;29;20411;-86
2021/09/20 13:47:02;;;;;;;13.27;9.75;;;;;;;;;;4914730;29;20599;-88
2021/09/20 13:49:47;;;;;;;14.95;10.45;;;;;;;;;;4926532;29;20027;-88
2021/09/20 13:52:42;;;;;;;13.57;9.63;;;;;;;;;;4910636;29;20115;-88
2021/09/20 13:55:56;;;;;;;;;;;;;;;;;;;;;
2021/09/20 13:59:29;;;;;;;13.20;9.75;;;;;;;;;;4913021;29;20446;-91
2021/09/20 14:02:14;;;;;;;11.95;8.38;;;;;;;;;;4932907;29;20111;-87
2021/09/20 14:04:59;;;;;;;12.00;8.60;;;;;;;;;;4924538;29;20039;-89
2021/09/20 14:07:44;;;;;;;15.38;8.68;;;;;;;;;;4916390;29;20087;-86
2021/09/20 14:10:30;;;;;;;11.77;9.70;;;;;;;;;;4915296;29;20039;-89
2021/09/20 14:13:18;;;;;;;9.77;7.45;;;;;;;;;;4915159;29;20433;-87
2021/09/20 14:16:03;;;;;;;12.90;7.88;;;;;;;;;;4903802;29;20027;-87
2021/09/20 14:18:49;;;;;;;10.55;7.65;;;;;;;;;;4906151;29;20114;-85
2021/09/20 14:21:37;;;;;;;12.02;7.35;;;;;;;;;;4923000;29;20028;-86
2021/09/20 14:24:23;;;;;;;11.52;7.43;;;;;;;;;;4918136;29;20494;-87
2021/09/20 14:27:08;;;;;;;10.43;7.50;;;;;;;;;;4914288;29;20067;-87
2021/09/20 14:29:53;;;;;;;10.77;7.97;;;;;;;;;;4926715;29;20024;-88
2021/09/20 14:32:39;;;;;;;10.90;7.63;;;;;;;;;;4927515;29;20525;-90
2021/09/20 14:35:24;;;;;;;9.75;7.10;;;;;;;;;;4920428;29;20035;-87
2021/09/20 14:38:10;;;;;;;16.20;8.32;;;;;;;;;;4921026;29;20031;-88
2021/09/20 14:40:55;;;;;;;11.35;8.27;;;;;;;;;;4923095;29;20482;-86
2021/09/20 14:43:40;;;;;;;9.35;7.20;;;;;;;;;;4928727;29;20091;-86
2021/09/20 14:46:25;;;;;;;10.07;7.30;;;;;;;;;;4933230;29;20036;-85
2021/09/20 14:49:11;;;;;;;10.07;8.13;;;;;;;;;;4923093;29;20027;-85
2021/09/20 14:51:56;;;;;;;11.45;7.20;;;;;;;;;;4922359;29;20044;-86
2021/09/20 14:54:41;;;;;;;9.63;6.47;;;;;;;;;;4912350;29;20035;-84
2021/09/20 14:57:27;;;;;;;8.70;6.47;;;;;;;;;;4927116;29;20024;-84
2021/09/20 15:00:13;;;;;;;9.20;6.60;;;;;;;;;;4904715;29;20031;-84
2021/09/20 15:02:58;;;;;;;10.40;7.82;;;;;;;;;;4924576;29;20097;-87
2021/09/20 15:05:44;;;;;;;10.73;7.45;;;;;;;;;;4919983;29;20479;-87
2021/09/20 15:08:30;;;;;;;11.55;8.55;;;;;;;;;;4921087;29;20036;-86
2021/09/20 15:11:18;;;;;;;13.35;9.90;;;;;;;;;;4922246;29;20110;-86
2021/09/20 15:14:03;;;;;;;11.25;8.25;;;;;;;;;;4908667;29;20059;-86
2021/09/20 15:16:48;;;;;;;12.13;7.88;;;;;;;;;;4927440;29;20538;-85
2021/09/20 15:19:34;;;;;;;11.73;8.25;;;;;;;;;;4929162;29;20454;-90
2021/09/20 15:22:19;;;;;;;10.95;8.55;;;;;;;;;;4918795;29;20035;-83
2021/09/20 15:25:05;;;;;;;13.88;8.55;;;;;;;;;;4912267;29;20039;-85
2021/09/20 15:27:50;;;;;;;12.00;8.45;;;;;;;;;;4915381;29;20027;-85
2021/09/20 15:30:35;;;;;;;11.57;8.55;;;;;;;;;;4914020;29;20028;-87
2021/09/20 15:33:21;;;;;;;10.50;8.27;;;;;;;;;;4918849;29;20028;-85
2021/09/20 15:36:07;;;;;;;12.30;8.35;;;;;;;;;;4924955;29;20171;-85
2021/09/20 15:38:52;;;;;;;10.82;7.53;;;;;;;;;;4924830;29;20024;-86
2021/09/20 15:41:37;;;;;;;9.07;7.25;;;;;;;;;;4909654;29;20031;-85
2021/09/20 15:44:22;;;;;;;10.98;8.02;;;;;;;;;;4926096;29;20103;-85
2021/09/20 15:47:09;;;;;;;11.70;7.63;;;;;;;;;;4934665;29;20023;-84
2021/09/20 15:49:54;;;;;;;9.98;7.28;;;;;;;;;;4926342;29;20044;-84
2021/09/20 15:52:41;;;;;;;9.43;7.22;;;;;;;;;;4911375;29;20039;-82
2021/09/20 15:55:26;;;;;;;10.95;7.38;;;;;;;;;;4900056;29;20538;-85
2021/09/20 15:58:11;;;;;;;10.75;8.95;;;;;;;;;;4920008;29;20059;-84
2021/09/20 16:00:56;;;;;;;9.23;7.78;;;;;;;;;;4916905;29;20055;-87
2021/09/20 16:03:42;;;;;;;11.10;8.57;;;;;;;;;;4917781;29;20097;-83
2021/09/20 16:06:27;;;;;;;12.20;7.38;;;;;;;;;;4919267;29;20023;-88
2021/09/20 16:09:13;;;;;;;13.15;7.32;;;;;;;;;;4933228;29;20047;-84
2021/09/20 16:11:58;;;;;;;11.32;8.40;;;;;;;;;;4921761;29;20027;-83
2021/09/20 16:14:43;;;;;;;10.07;7.57;;;;;;;;;;4910028;29;20044;-85
2021/09/20 16:17:28;;;;;;;10.18;7.47;;;;;;;;;;4914347;29;20023;-88
2021/09/20 16:20:15;;;;;;;11.05;7.55;;;;;;;;;;4928441;29;20035;-90
2021/09/20 16:23:00;;;;;;;11.00;7.50;;;;;;;;;;4936927;29;20467;-88
2021/09/20 16:25:48;;;;;;;9.15;7.35;;;;;;;;;;4915483;29;20115;-89
2021/09/20 16:28:34;;;;;;;11.02;7.20;;;;;;;;;;4907419;29;20038;-86